createdAt,value
2022-12-25T00:01:40.929Z,5.96
2022-12-25T00:04:07.571Z,6.00
2022-12-25T00:06:34.310Z,5.95
2022-12-25T00:09:01.102Z,6.02
2022-12-25T00:11:27.828Z,6.01
2022-12-25T00:13:54.480Z,6.05
2022-12-25T00:16:24.172Z,6.17
2022-12-25T00:18:51.722Z,6.21
2022-12-25T00:21:19.804Z,6.16
2022-12-25T00:23:46.736Z,6.21
2022-12-25T00:26:16.126Z,6.21
2022-12-25T00:28:43.245Z,6.24
2022-12-25T00:31:15.287Z,6.25
2022-12-25T00:33:43.823Z,6.25
2022-12-25T00:36:11.420Z,6.26
2022-12-25T00:38:39.123Z,6.24
2022-12-25T00:41:07.495Z,6.19
2022-12-25T00:43:34.160Z,6.22
2022-12-25T00:46:04.119Z,6.23
2022-12-25T00:48:31.141Z,6.07
2022-12-25T00:51:02.532Z,6.08
2022-12-25T00:53:30.040Z,6.04
2022-12-25T00:55:59.220Z,6.03
2022-12-25T00:58:27.680Z,5.98
2022-12-25T01:00:55.037Z,6.01
2022-12-25T01:03:22.635Z,6.03
2022-12-25T01:05:57.937Z,6.02
2022-12-25T01:08:24.997Z,5.99
2022-12-25T01:11:08.781Z,6.02
2022-12-25T01:13:37.338Z,6.01
2022-12-25T01:16:09.367Z,5.79
2022-12-25T01:18:36.494Z,5.71
2022-12-25T01:21:11.040Z,5.79
2022-12-25T01:23:38.364Z,5.78
2022-12-25T01:26:06.236Z,5.84
2022-12-25T01:28:33.136Z,5.78
2022-12-25T01:30:59.782Z,5.69
2022-12-25T01:33:28.137Z,5.68
2022-12-25T01:35:54.811Z,5.64
2022-12-25T01:38:21.855Z,5.64
2022-12-25T01:40:48.491Z,5.57
2022-12-25T01:43:27.540Z,5.56
2022-12-25T01:45:54.496Z,5.55
2022-12-25T01:48:24.922Z,5.51
2022-12-25T01:50:56.766Z,5.55
2022-12-25T01:53:24.863Z,5.50
2022-12-25T01:55:55.672Z,5.44
2022-12-25T01:58:22.546Z,5.53
2022-12-25T02:03:26.286Z,5.65
2022-12-25T02:05:53.380Z,5.62
2022-12-25T02:08:21.395Z,5.45
2022-12-25T02:10:48.461Z,5.54
2022-12-25T02:13:17.432Z,5.78
2022-12-25T02:16:23.353Z,5.82
2022-12-25T02:18:54.299Z,5.70
2022-12-25T02:22:00.062Z,5.69
2022-12-25T02:24:50.554Z,5.65
2022-12-25T02:27:54.994Z,5.68
2022-12-25T02:30:22.443Z,5.89
2022-12-25T02:33:17.704Z,5.90
2022-12-25T02:35:48.065Z,5.94
2022-12-25T02:38:25.694Z,5.96
2022-12-25T02:40:56.559Z,6.07
2022-12-25T02:43:51.118Z,6.15
2022-12-25T02:46:40.620Z,6.18
2022-12-25T02:49:29.955Z,6.16
2022-12-25T02:52:19.673Z,6.32
2022-12-25T02:55:10.839Z,6.31
2022-12-25T02:57:59.826Z,6.31
2022-12-25T03:00:45.032Z,6.25
2022-12-25T03:03:31.411Z,6.33
2022-12-25T03:06:20.190Z,6.41
2022-12-25T03:08:49.066Z,6.48
2022-12-25T03:11:33.983Z,6.54
2022-12-25T03:14:29.462Z,6.52
2022-12-25T03:16:58.214Z,6.64
2022-12-25T03:19:48.176Z,6.71
2022-12-25T03:22:45.698Z,6.76
2022-12-25T03:25:30.651Z,6.87
2022-12-25T03:27:58.874Z,7.03
2022-12-25T03:30:50.075Z,6.99
2022-12-25T03:34:25.180Z,6.94
2022-12-25T03:37:37.737Z,6.91
2022-12-25T03:40:36.238Z,6.93
2022-12-25T03:43:37.775Z,6.87
2022-12-25T03:46:25.339Z,6.78
2022-12-25T03:49:13.765Z,6.61
2022-12-25T03:52:00.718Z,6.63
2022-12-25T03:54:48.252Z,6.58
2022-12-25T03:57:33.616Z,6.47
2022-12-25T04:00:18.857Z,6.44
2022-12-25T04:03:04.032Z,6.38
2022-12-25T04:05:49.158Z,6.44
2022-12-25T04:08:34.338Z,6.34
2022-12-25T04:11:19.793Z,6.40
2022-12-25T04:14:05.133Z,6.53
2022-12-25T04:16:50.712Z,6.51
2022-12-25T04:19:36.180Z,6.49
2022-12-25T04:22:21.623Z,6.63
2022-12-25T04:25:07.052Z,6.65
2022-12-25T04:27:52.367Z,6.71
2022-12-25T04:30:37.614Z,6.66
2022-12-25T04:33:22.998Z,6.68
2022-12-25T04:36:08.389Z,6.63
2022-12-25T04:38:35.881Z,6.60
2022-12-25T04:41:03.176Z,6.64
2022-12-25T04:43:30.525Z,6.66
2022-12-25T04:45:59.009Z,6.71
2022-12-25T04:48:27.556Z,6.68
2022-12-25T04:50:54.320Z,6.67
2022-12-25T04:53:21.093Z,6.58
2022-12-25T04:55:47.790Z,6.68
2022-12-25T04:58:14.666Z,6.73
2022-12-25T05:00:41.521Z,6.75
2022-12-25T05:03:08.862Z,6.78
2022-12-25T05:05:39.607Z,6.77
2022-12-25T05:08:06.607Z,6.67
2022-12-25T05:10:33.678Z,6.67
2022-12-25T05:13:00.406Z,6.69
2022-12-25T05:15:27.187Z,6.77
2022-12-25T05:17:53.924Z,6.75
2022-12-25T05:20:20.740Z,6.79
2022-12-25T05:22:47.698Z,6.85
2022-12-25T05:25:14.462Z,6.81
2022-12-25T05:27:41.157Z,6.80
2022-12-25T05:30:09.020Z,6.82
2022-12-25T05:32:35.942Z,6.71
2022-12-25T05:35:03.064Z,6.79
2022-12-25T05:37:29.786Z,6.85
2022-12-25T05:39:56.522Z,6.81
2022-12-25T05:42:23.262Z,6.89
2022-12-25T05:44:49.983Z,6.84
2022-12-25T05:47:16.664Z,6.96
2022-12-25T05:49:45.701Z,7.03
2022-12-25T05:52:12.668Z,7.03
2022-12-25T05:54:39.473Z,7.03
2022-12-25T05:57:06.462Z,7.04
2022-12-25T05:59:33.788Z,7.02
2022-12-25T06:02:00.707Z,7.02
2022-12-25T06:04:27.690Z,7.05
2022-12-25T06:06:54.495Z,6.96
2022-12-25T06:09:21.301Z,6.93
2022-12-25T06:11:48.120Z,6.89
2022-12-25T06:14:15.771Z,6.82
2022-12-25T06:16:42.595Z,6.84
2022-12-25T06:19:09.477Z,6.84
2022-12-25T06:21:36.396Z,6.82
2022-12-25T06:24:03.487Z,6.85
2022-12-25T06:26:30.285Z,6.74
2022-12-25T06:28:57.021Z,6.73
2022-12-25T06:31:24.488Z,6.75
2022-12-25T06:33:51.461Z,6.85
2022-12-25T06:36:26.368Z,6.80
2022-12-25T06:38:53.686Z,6.78
2022-12-25T06:41:23.052Z,6.71
2022-12-25T06:44:00.920Z,6.76
2022-12-25T06:46:29.634Z,6.73
2022-12-25T06:48:58.158Z,6.70
2022-12-25T06:51:29.271Z,6.79
2022-12-25T06:53:56.385Z,6.83
2022-12-25T06:56:26.152Z,6.82
2022-12-25T06:59:04.711Z,6.83
2022-12-25T07:01:48.261Z,6.91
2022-12-25T07:04:32.621Z,6.93
2022-12-25T07:07:04.395Z,6.98
2022-12-25T07:09:35.846Z,6.90
2022-12-25T07:12:15.368Z,6.89
2022-12-25T07:14:42.334Z,6.84
2022-12-25T07:17:09.066Z,6.90
2022-12-25T07:19:41.049Z,6.95
2022-12-25T07:22:11.568Z,6.89
2022-12-25T07:24:38.244Z,6.91
2022-12-25T07:27:05.037Z,6.88
2022-12-25T07:29:31.855Z,6.91
2022-12-25T07:31:58.709Z,6.92
2022-12-25T07:34:25.845Z,6.92
2022-12-25T07:36:54.894Z,6.96
2022-12-25T07:39:21.562Z,6.93
2022-12-25T07:41:48.539Z,6.93
2022-12-25T07:44:16.071Z,6.95
2022-12-25T07:46:43.230Z,6.98
2022-12-25T07:49:11.328Z,7.01
2022-12-25T07:51:38.194Z,7.08
2022-12-25T07:54:05.238Z,7.02
2022-12-25T07:56:32.246Z,7.04
2022-12-25T07:58:58.950Z,6.90
2022-12-25T08:01:29.042Z,6.99
2022-12-25T08:03:57.956Z,7.06
2022-12-25T08:06:30.039Z,7.09
2022-12-25T08:08:57.788Z,7.14
2022-12-25T08:11:24.541Z,7.12
2022-12-25T08:13:51.310Z,7.20
2022-12-25T08:16:18.059Z,7.23
2022-12-25T08:18:44.882Z,7.30
2022-12-25T08:21:14.419Z,7.27
2022-12-25T08:23:43.006Z,7.29
2022-12-25T08:26:12.497Z,7.27
2022-12-25T08:28:39.710Z,7.27
2022-12-25T08:31:16.091Z,7.30
2022-12-25T08:33:44.261Z,7.32
2022-12-25T08:36:12.289Z,7.21
2022-12-25T08:38:39.549Z,7.29
2022-12-25T08:41:06.619Z,7.31
2022-12-25T08:43:33.298Z,7.37
2022-12-25T08:46:01.038Z,7.37
2022-12-25T08:48:28.324Z,7.36
2022-12-25T08:50:55.436Z,7.52
2022-12-25T08:53:22.828Z,7.43
2022-12-25T08:55:49.615Z,7.48
2022-12-25T08:58:17.338Z,7.54
2022-12-25T09:00:45.075Z,7.54
2022-12-25T09:03:12.457Z,7.64
2022-12-25T09:05:42.469Z,7.83
2022-12-25T09:08:09.588Z,7.85
2022-12-25T09:10:38.033Z,7.84
2022-12-25T09:13:05.388Z,7.88
2022-12-25T09:15:32.232Z,7.91
2022-12-25T09:17:58.950Z,7.95
2022-12-25T09:20:26.000Z,7.99
2022-12-25T09:22:52.933Z,8.01
2022-12-25T09:25:20.152Z,8.02
2022-12-25T09:27:47.008Z,8.05
2022-12-25T09:30:13.854Z,8.13
2022-12-25T09:32:41.061Z,8.23
2022-12-25T09:35:09.217Z,8.24
2022-12-25T09:37:36.449Z,8.26
2022-12-25T09:40:04.740Z,8.30
2022-12-25T09:42:34.844Z,8.28
2022-12-25T09:45:06.584Z,8.39
2022-12-25T09:47:36.312Z,8.46
2022-12-25T09:50:11.770Z,8.45
2022-12-25T09:53:04.799Z,8.54
2022-12-25T09:55:37.511Z,8.57
2022-12-25T09:58:11.614Z,8.67
2022-12-25T10:00:43.544Z,8.70
2022-12-25T10:04:11.838Z,8.73
2022-12-25T10:07:16.116Z,8.84
2022-12-25T10:10:06.081Z,8.92
2022-12-25T10:13:21.719Z,8.98
2022-12-25T10:15:52.869Z,9.05
2022-12-25T10:18:47.872Z,9.10
2022-12-25T10:21:15.287Z,9.18
2022-12-25T10:23:48.721Z,9.24
2022-12-25T10:26:25.643Z,9.28
2022-12-25T10:29:13.669Z,9.37
2022-12-25T10:31:42.117Z,9.39
2022-12-25T10:34:12.437Z,9.45
2022-12-25T10:36:39.121Z,9.47
2022-12-25T10:39:06.134Z,9.53
2022-12-25T10:42:24.371Z,9.53
2022-12-25T10:45:02.658Z,9.57
2022-12-25T10:47:34.305Z,9.65
2022-12-25T10:50:02.248Z,9.65
2022-12-25T10:52:29.943Z,9.68
2022-12-25T10:54:57.005Z,9.68
2022-12-25T10:57:26.227Z,9.70
2022-12-25T10:59:57.968Z,9.68
2022-12-25T11:02:30.318Z,9.73
2022-12-25T11:05:25.704Z,9.78
2022-12-25T11:07:56.197Z,9.76
2022-12-25T11:10:31.935Z,9.77
2022-12-25T11:13:00.475Z,9.80
2022-12-25T11:16:03.651Z,9.85
2022-12-25T11:18:35.311Z,9.86
2022-12-25T11:21:33.127Z,9.87
2022-12-25T11:24:07.780Z,9.92
2022-12-25T11:26:51.037Z,9.96
2022-12-25T11:29:42.765Z,9.92
2022-12-25T11:32:17.427Z,9.90
2022-12-25T11:34:46.036Z,9.99
2022-12-25T11:37:19.187Z,10.01
2022-12-25T11:39:46.002Z,9.99
2022-12-25T11:42:21.243Z,9.99
2022-12-25T11:45:17.701Z,10.02
2022-12-25T11:47:47.543Z,9.97
2022-12-25T11:50:28.421Z,10.05
2022-12-25T11:52:56.066Z,10.10
2022-12-25T11:55:59.653Z,10.05
2022-12-25T11:58:36.509Z,10.01
2022-12-25T12:01:23.540Z,9.97
2022-12-25T12:03:50.437Z,10.02
2022-12-25T12:06:35.189Z,10.03
2022-12-25T12:09:17.526Z,10.08
2022-12-25T12:11:50.120Z,10.04
2022-12-25T12:14:25.988Z,10.02
2022-12-25T12:16:52.767Z,10.04
2022-12-25T12:19:28.520Z,9.99
2022-12-25T12:22:00.718Z,9.99
2022-12-25T12:24:39.642Z,10.12
2022-12-25T12:27:19.830Z,10.06
2022-12-25T12:29:51.199Z,10.05
2022-12-25T12:32:37.043Z,10.04
2022-12-25T12:35:29.138Z,10.05
2022-12-25T12:37:58.467Z,10.01
2022-12-25T12:40:37.529Z,10.00
2022-12-25T12:43:05.503Z,9.99
2022-12-25T12:45:36.724Z,9.88
2022-12-25T12:48:15.615Z,9.84
2022-12-25T12:50:43.206Z,9.87
2022-12-25T12:53:42.944Z,9.90
2022-12-25T12:56:12.144Z,9.85
2022-12-25T12:58:45.373Z,9.94
2022-12-25T13:01:21.287Z,9.95
2022-12-25T13:04:22.128Z,9.93
2022-12-25T13:07:13.279Z,10.00
2022-12-25T13:10:24.700Z,10.02
2022-12-25T13:12:54.502Z,10.00
2022-12-25T13:15:23.806Z,9.95
2022-12-25T13:17:50.857Z,9.99
2022-12-25T13:20:25.442Z,10.00
2022-12-25T13:22:53.086Z,10.02
2022-12-25T13:25:24.103Z,10.03
2022-12-25T13:27:57.952Z,10.01
2022-12-25T13:30:25.442Z,10.00
2022-12-25T13:32:52.258Z,9.91
2022-12-25T13:35:21.426Z,9.95
2022-12-25T13:37:48.265Z,9.87
2022-12-25T13:40:26.817Z,9.91
2022-12-25T13:42:58.446Z,9.95
2022-12-25T13:45:31.292Z,9.90
2022-12-25T13:47:58.855Z,9.89
2022-12-25T13:50:32.121Z,9.92
2022-12-25T13:53:11.457Z,9.91
2022-12-25T13:55:38.257Z,9.82
2022-12-25T13:58:06.454Z,9.81
2022-12-25T14:00:38.418Z,9.89
2022-12-25T14:03:07.689Z,9.85
2022-12-25T14:05:42.092Z,9.88
2022-12-25T14:08:19.672Z,9.82
2022-12-25T14:10:49.847Z,9.79
2022-12-25T14:13:16.896Z,9.84
2022-12-25T14:15:45.953Z,9.93
2022-12-25T14:18:17.348Z,9.93
2022-12-25T14:20:59.575Z,9.90
2022-12-25T14:23:27.445Z,9.88
2022-12-25T14:25:54.090Z,9.90
2022-12-25T14:28:25.089Z,9.94
2022-12-25T14:30:51.916Z,9.89
2022-12-25T14:33:21.628Z,9.89
2022-12-25T14:35:48.931Z,9.91
2022-12-25T14:38:29.578Z,9.94
2022-12-25T14:41:05.697Z,9.91
2022-12-25T14:43:32.840Z,9.92
2022-12-25T14:46:01.856Z,9.92
2022-12-25T14:48:36.440Z,9.94
2022-12-25T14:51:08.692Z,9.96
2022-12-25T14:53:40.465Z,10.02
2022-12-25T14:56:07.944Z,9.99
2022-12-25T14:58:41.830Z,9.95
2022-12-25T15:01:20.357Z,9.87
2022-12-25T15:03:50.184Z,9.89
2022-12-25T15:06:22.736Z,9.92
2022-12-25T15:08:58.052Z,9.94
2022-12-25T15:11:24.818Z,9.90
2022-12-25T15:13:51.627Z,9.91
2022-12-25T15:16:23.930Z,9.90
2022-12-25T15:18:51.263Z,9.87
2022-12-25T15:21:24.710Z,9.76
2022-12-25T15:23:55.648Z,9.83
2022-12-25T15:26:23.057Z,9.90
2022-12-25T15:28:49.859Z,9.87
2022-12-25T15:31:21.408Z,9.87
2022-12-25T15:33:49.028Z,9.87
2022-12-25T15:36:15.776Z,9.93
2022-12-25T15:38:42.821Z,9.91
2022-12-25T15:41:34.495Z,9.95
2022-12-25T15:44:01.400Z,9.99
2022-12-25T15:46:28.222Z,9.98
2022-12-25T15:48:55.018Z,9.94
2022-12-25T15:51:21.813Z,9.94
2022-12-25T15:53:48.635Z,10.02
2022-12-25T15:56:15.666Z,9.98
2022-12-25T15:58:42.405Z,9.93
2022-12-25T16:01:19.208Z,9.91
2022-12-25T16:03:46.688Z,9.99
2022-12-25T16:06:17.993Z,10.05
2022-12-25T16:08:45.835Z,10.13
2022-12-25T16:11:16.177Z,10.02
2022-12-25T16:13:42.995Z,10.05
2022-12-25T16:16:09.755Z,10.06
2022-12-25T16:18:37.903Z,10.06
2022-12-25T16:21:12.642Z,10.06
2022-12-25T16:23:43.620Z,10.01
2022-12-25T16:26:10.309Z,10.06
2022-12-25T16:28:36.970Z,10.04
2022-12-25T16:31:04.046Z,10.03
2022-12-25T16:33:30.819Z,10.03
2022-12-25T16:35:57.564Z,10.01
2022-12-25T16:38:24.299Z,10.05
2022-12-25T16:40:58.809Z,10.03
2022-12-25T16:43:25.709Z,9.93
2022-12-25T16:45:52.643Z,9.94
2022-12-25T16:48:19.454Z,9.88
2022-12-25T16:50:46.187Z,9.87
2022-12-25T16:53:12.984Z,9.86
2022-12-25T16:55:39.943Z,9.78
2022-12-25T16:58:07.285Z,9.81
2022-12-25T17:00:33.947Z,9.69
2022-12-25T17:03:01.828Z,9.72
2022-12-25T17:05:28.806Z,9.67
2022-12-25T17:07:55.545Z,9.65
2022-12-25T17:10:22.425Z,9.68
2022-12-25T17:12:49.180Z,9.63
2022-12-25T17:15:16.248Z,9.64
2022-12-25T17:17:43.013Z,9.52
2022-12-25T17:20:10.376Z,9.53
2022-12-25T17:22:37.293Z,9.49
2022-12-25T17:25:04.261Z,9.44
2022-12-25T17:27:30.961Z,9.40
2022-12-25T17:29:57.699Z,9.38
2022-12-25T17:32:24.411Z,9.36
2022-12-25T17:34:51.224Z,9.40
2022-12-25T17:37:18.081Z,9.39
2022-12-25T17:39:44.849Z,9.34
2022-12-25T17:42:11.565Z,9.25
2022-12-25T17:44:38.194Z,9.23
2022-12-25T17:47:05.017Z,9.26
2022-12-25T17:49:31.818Z,9.18
2022-12-25T17:51:58.480Z,9.18
2022-12-25T17:54:25.154Z,9.36
2022-12-25T17:56:51.955Z,9.22
2022-12-25T17:59:19.014Z,9.25
2022-12-25T18:01:47.419Z,9.28
2022-12-25T18:04:14.402Z,9.24
2022-12-25T18:06:41.828Z,9.25
2022-12-25T18:09:09.995Z,9.25
2022-12-25T18:11:39.833Z,9.26
2022-12-25T18:14:07.938Z,9.26
2022-12-25T18:16:36.814Z,9.18
2022-12-25T18:19:04.064Z,9.19
2022-12-25T18:21:30.765Z,9.12
2022-12-25T18:23:57.867Z,9.12
2022-12-25T18:26:26.184Z,9.07
2022-12-25T18:28:53.144Z,9.11
2022-12-25T18:31:23.101Z,9.07
2022-12-25T18:33:50.386Z,9.09
2022-12-25T18:36:20.374Z,9.10
2022-12-25T18:38:48.716Z,9.10
2022-12-25T18:41:16.104Z,9.08
2022-12-25T18:43:52.288Z,9.03
2022-12-25T18:46:22.640Z,9.04
2022-12-25T18:48:49.606Z,8.99
2022-12-25T18:51:16.564Z,9.06
2022-12-25T18:53:43.457Z,9.10
2022-12-25T18:56:13.269Z,9.06
2022-12-25T18:58:40.222Z,9.05
2022-12-25T19:01:15.385Z,9.03
2022-12-25T19:03:42.111Z,9.08
2022-12-25T19:06:08.879Z,9.02
2022-12-25T19:08:36.112Z,9.06
2022-12-25T19:11:07.297Z,9.01
2022-12-25T19:13:34.090Z,8.96
2022-12-25T19:16:01.002Z,8.98
2022-12-25T19:18:27.968Z,8.95
2022-12-25T19:20:54.601Z,9.05
2022-12-25T19:23:21.413Z,9.01
2022-12-25T19:25:49.690Z,9.02
2022-12-25T19:28:17.923Z,9.10
2022-12-25T19:30:44.648Z,9.09
2022-12-25T19:33:17.510Z,9.11
2022-12-25T19:35:44.846Z,9.06
2022-12-25T19:38:11.684Z,9.08
2022-12-25T19:40:39.596Z,9.20
2022-12-25T19:43:06.837Z,9.31
2022-12-25T19:45:33.619Z,9.37
2022-12-25T19:48:00.416Z,9.39
2022-12-25T19:50:28.709Z,9.35
2022-12-25T19:52:59.758Z,9.39
2022-12-25T19:55:26.417Z,9.42
2022-12-25T19:57:54.160Z,9.53
2022-12-25T20:00:21.041Z,9.69
2022-12-25T20:02:47.971Z,9.81
2022-12-25T20:05:14.790Z,9.83
2022-12-25T20:07:41.655Z,9.86
2022-12-25T20:10:08.868Z,9.85
2022-12-25T20:12:35.777Z,9.87
2022-12-25T20:15:02.446Z,9.80
2022-12-25T20:17:29.302Z,9.86
2022-12-25T20:19:56.145Z,9.80
2022-12-25T20:22:22.871Z,9.79
2022-12-25T20:24:49.666Z,9.80
2022-12-25T20:27:16.411Z,9.76
2022-12-25T20:29:43.154Z,9.78
2022-12-25T20:32:10.031Z,9.79
2022-12-25T20:34:36.915Z,9.87
2022-12-25T20:37:04.019Z,9.89
2022-12-25T20:39:30.631Z,9.86
2022-12-25T20:41:57.465Z,9.75
2022-12-25T20:44:24.240Z,9.74
2022-12-25T20:46:50.932Z,9.83
2022-12-25T20:49:17.795Z,9.81
2022-12-25T20:51:44.457Z,9.80
2022-12-25T20:54:12.833Z,9.72
2022-12-25T20:56:40.497Z,9.68
2022-12-25T20:59:07.263Z,9.71
2022-12-25T21:01:34.075Z,9.79
2022-12-25T21:04:01.020Z,9.80
2022-12-25T21:06:27.917Z,9.83
2022-12-25T21:08:54.910Z,9.79
2022-12-25T21:11:22.189Z,9.75
2022-12-25T21:13:49.366Z,9.76
2022-12-25T21:16:20.007Z,9.83
2022-12-25T21:18:48.895Z,9.78
2022-12-25T21:21:16.021Z,9.73
2022-12-25T21:23:42.795Z,9.77
2022-12-25T21:26:15.811Z,9.78
2022-12-25T21:28:42.525Z,9.78
2022-12-25T21:31:09.813Z,9.75
2022-12-25T21:33:51.733Z,9.78
2022-12-25T21:36:30.970Z,9.77
2022-12-25T21:39:00.776Z,9.77
2022-12-25T21:41:28.452Z,9.78
2022-12-25T21:43:55.711Z,9.79
2022-12-25T21:46:22.689Z,9.86
2022-12-25T21:48:49.717Z,9.87
2022-12-25T21:51:41.015Z,9.84
2022-12-25T21:54:08.438Z,9.83
2022-12-25T21:56:43.178Z,9.81
2022-12-25T21:59:16.719Z,9.93
2022-12-25T22:01:43.894Z,9.97
2022-12-25T22:04:11.706Z,10.03
2022-12-25T22:06:57.138Z,10.12
2022-12-25T22:09:23.792Z,10.14
2022-12-25T22:12:09.168Z,10.13
2022-12-25T22:14:54.929Z,10.21
2022-12-25T22:17:49.845Z,10.42
2022-12-25T22:20:28.240Z,10.55
2022-12-25T22:22:55.096Z,10.47
2022-12-25T22:25:22.552Z,10.52
2022-12-25T22:27:49.945Z,10.53
2022-12-25T22:30:19.483Z,10.63
2022-12-25T22:32:46.652Z,10.74
2022-12-25T22:35:13.868Z,10.83
2022-12-25T22:37:41.959Z,10.93
2022-12-25T22:40:10.626Z,11.09
2022-12-25T22:42:37.642Z,11.03
2022-12-25T22:45:05.408Z,11.02
2022-12-25T22:47:32.364Z,11.09
2022-12-25T22:49:59.119Z,11.04
2022-12-25T22:52:25.994Z,11.04
2022-12-25T22:54:52.996Z,11.01
2022-12-25T22:57:19.863Z,11.02
2022-12-25T22:59:46.597Z,11.08
2022-12-25T23:02:13.429Z,11.12
2022-12-25T23:04:40.815Z,11.12
2022-12-25T23:07:07.565Z,11.09
2022-12-25T23:09:34.373Z,11.06
2022-12-25T23:12:01.081Z,10.99
2022-12-25T23:14:39.960Z,11.00
2022-12-25T23:17:31.237Z,11.02
2022-12-25T23:20:18.421Z,11.11
2022-12-25T23:23:04.858Z,11.13
2022-12-25T23:25:50.519Z,11.24
2022-12-25T23:28:40.064Z,11.39
2022-12-25T23:31:07.388Z,11.43
2022-12-25T23:33:34.230Z,11.47
2022-12-25T23:36:00.881Z,11.47
2022-12-25T23:38:27.604Z,11.45
2022-12-25T23:40:54.265Z,11.41
2022-12-25T23:43:21.150Z,11.41
2022-12-25T23:45:47.872Z,11.34
2022-12-25T23:48:14.610Z,11.31
2022-12-25T23:50:41.418Z,11.36
2022-12-25T23:53:08.151Z,11.42
2022-12-25T23:55:34.913Z,11.44
2022-12-25T23:58:01.776Z,11.37
